Time;durP1;ratioP1;P1;durP2;ratioP2;P2;SDS_P1;SDS_P2;PMS_P1;PMS_P2;Temp;Humidity;BMP_temperature;BMP_pressure;BME280_temperature;BME280_humidity;BME280_pressure;Samples;Min_cycle;Max_cycle;Signal;HPM_P1;HPM_P2
2022/05/10 00:00:08;;;;;;;;;;;;;;;16.44;36.28;102230.94;5021202;28;19921;-46
2022/05/10 00:02:34;;;;;;;;;;;;;;;16.43;36.36;102230.06;5022864;28;20301;-46
2022/05/10 00:04:59;;;;;;;;;;;;;;;16.42;36.18;102228.38;5024789;28;19970;-48
2022/05/10 00:07:25;;;;;;;;;;;;;;;16.39;36.29;102231.22;5025114;28;19917;-48
2022/05/10 00:09:51;;;;;;;;;;;;;;;16.37;36.18;102226.94;5023093;28;19959;-49
2022/05/10 00:12:16;;;;;;;;;;;;;;;16.35;36.25;102226.16;5026673;28;19959;-46
2022/05/10 00:14:41;;;;;;;;;;;;;;;16.33;36.20;102228.91;5025530;28;19919;-47
2022/05/10 00:17:08;;;;;;;;;;;;;;;16.32;36.16;102231.69;5027236;28;19960;-46
2022/05/10 00:19:33;;;;;;;;;;;;;;;16.29;36.17;102225.59;5022615;28;19928;-47
2022/05/10 00:21:59;;;;;;;;;;;;;;;16.29;36.15;102228.25;5020854;28;19913;-49
2022/05/10 00:24:24;;;;;;;;;;;;;;;16.28;35.87;102223.00;5027073;28;19920;-46
2022/05/10 00:26:50;;;;;;;;;;;;;;;16.27;36.13;102218.63;5020643;28;19924;-47
2022/05/10 00:29:15;;;;;;;;;;;;;;;16.27;36.09;102223.94;5023466;28;20059;-46
2022/05/10 00:31:42;;;;;;;;;;;;;;;16.27;36.02;102218.63;5021535;28;19916;-46
2022/05/10 00:34:07;;;;;;;;;;;;;;;16.27;35.92;102219.50;5027127;28;19916;-46
2022/05/10 00:36:33;;;;;;;;;;;;;;;16.28;36.02;102220.34;5022006;28;19917;-48
2022/05/10 00:38:59;;;;;;;;;;;;;;;16.24;35.95;102217.03;5024262;28;19925;-46
2022/05/10 00:41:42;;;;;;;;;;;;;;;16.23;35.91;102212.66;5019974;28;20288;-47
2022/05/10 00:44:17;;;;;;;;;;;;;;;16.19;35.88;102210.28;5025662;28;20122;-47
2022/05/10 00:46:45;;;;;;;;;;;;;;;16.19;36.14;102200.50;5024377;28;19913;-46
2022/05/10 00:49:10;;;;;;;;;;;;;;;16.18;35.85;102195.28;5019633;28;19917;-46
2022/05/10 00:51:44;;;;;;;;;;;;;;;16.12;35.86;102194.69;5025662;28;19924;-46
2022/05/10 00:54:22;;;;;;;;;;;;;;;16.09;35.97;102194.91;5020592;28;19913;-46
2022/05/10 00:56:50;;;;;;;;;;;;;;;16.04;35.98;102191.63;5025150;28;19995;-47
2022/05/10 00:59:17;;;;;;;;;;;;;;;15.99;36.01;102183.06;5019312;28;19924;-48
2022/05/10 01:01:45;;;;;;;;;;;;;;;15.95;36.05;102177.09;5024088;28;19920;-49
2022/05/10 01:04:13;;;;;;;;;;;;;;;15.90;36.18;102173.84;5017402;28;19944;-47
2022/05/10 01:06:43;;;;;;;;;;;;;;;15.85;36.30;102174.13;5019661;28;19927;-46
2022/05/10 01:09:12;;;;;;;;;;;;;;;15.82;36.24;102166.28;5025549;28;19968;-47
2022/05/10 01:11:46;;;;;;;;;;;;;;;15.81;36.42;102175.19;5023699;28;20008;-47
2022/05/10 01:14:15;;;;;;;;;;;;;;;15.78;36.42;102159.47;5025479;28;20483;-45
2022/05/10 01:16:41;;;;;;;;;;;;;;;15.74;36.53;102155.28;5019218;28;19996;-46
2022/05/10 01:19:06;;;;;;;;;;;;;;;15.71;36.33;102158.09;5023994;28;20582;-45
2022/05/10 01:21:37;;;;;;;;;;;;;;;15.67;36.45;102160.06;5021848;28;20343;-48
2022/05/10 01:24:06;;;;;;;;;;;;;;;15.65;36.46;102150.50;5019242;28;19919;-47
2022/05/10 01:26:37;;;;;;;;;;;;;;;15.62;36.49;102153.31;5022100;28;20439;-46
2022/05/10 01:29:08;;;;;;;;;;;;;;;15.59;36.54;102148.19;5017642;28;19924;-47
2022/05/10 01:31:43;;;;;;;;;;;;;;;15.54;36.72;102149.28;5020371;28;19952;-46
2022/05/10 01:34:17;;;;;;;;;;;;;;;15.47;36.75;102139.13;5018854;28;19940;-47
2022/05/10 01:36:50;;;;;;;;;;;;;;;15.44;36.61;102145.47;5025265;28;19916;-46
2022/05/10 01:39:20;;;;;;;;;;;;;;;15.42;36.81;102142.03;5021407;28;19913;-47
2022/05/10 01:41:57;;;;;;;;;;;;;;;15.39;36.99;102139.53;5031913;28;19913;-45
2022/05/10 01:44:23;;;;;;;;;;;;;;;15.37;36.88;102139.66;5026432;28;19913;-48
2022/05/10 01:46:51;;;;;;;;;;;;;;;15.37;36.85;102138.78;5012274;28;19920;-47
2022/05/10 01:49:45;;;;;;;;;;;;;;;15.37;37.02;102136.13;5025183;28;20376;-46
2022/05/10 01:52:14;;;;;;;;;;;;;;;15.37;36.98;102134.34;4942124;28;19927;-47
2022/05/10 01:54:40;;;;;;;;;;;;;;;15.31;36.88;102129.38;5028309;28;19913;-46
2022/05/10 01:57:09;;;;;;;;;;;;;;;15.29;36.92;102139.19;5022577;28;19921;-46
2022/05/10 01:59:35;;;;;;;;;;;;;;;15.26;36.96;102135.88;5024672;28;20403;-48
2022/05/10 02:02:01;;;;;;;;;;;;;;;15.26;37.03;102135.88;5030839;28;19925;-47
2022/05/10 02:04:30;;;;;;;;;;;;;;;15.22;37.15;102136.03;5024014;28;19940;-47
2022/05/10 02:07:00;;;;;;;;;;;;;;;15.23;37.02;102132.44;5027569;28;19936;-48
2022/05/10 02:09:44;;;;;;;;;;;;;;;15.24;36.95;102134.16;5025363;28;19952;-46
2022/05/10 02:12:20;;;;;;;;;;;;;;;15.25;36.90;102129.72;5021068;28;19921;-46
2022/05/10 02:14:51;;;;;;;;;;;;;;;15.24;37.00;102136.81;5024887;28;19913;-47
2022/05/10 02:17:24;;;;;;;;;;;;;;;15.24;36.92;102136.81;5023296;28;19913;-47
2022/05/10 02:19:53;;;;;;;;;;;;;;;15.22;37.01;102136.03;5023261;28;19921;-47
2022/05/10 02:22:22;;;;;;;;;;;;;;;15.23;37.00;102126.31;5020186;28;19917;-48
2022/05/10 02:24:58;;;;;;;;;;;;;;;15.25;37.14;102135.03;5023935;28;19913;-46
2022/05/10 02:27:32;;;;;;;;;;;;;;;15.24;36.94;102126.19;5005530;28;20308;-46
2022/05/10 02:29:59;;;;;;;;;;;;;;;15.24;37.25;102131.50;5023236;28;19992;-46
2022/05/10 02:35:13;;;;;;;;;;;;;;;15.19;37.04;102130.91;5025719;28;20332;-46
2022/05/10 02:37:38;;;;;;;;;;;;;;;15.19;36.87;102120.31;5020241;28;19940;-47
2022/05/10 02:40:04;;;;;;;;;;;;;;;15.23;36.76;102127.13;5026454;28;19924;-49
2022/05/10 02:42:30;;;;;;;;;;;;;;;15.27;36.87;102119.03;5020682;28;20293;-46
2022/05/10 02:44:56;;;;;;;;;;;;;;;15.29;36.69;102115.31;5020154;28;20016;-46
2022/05/10 02:47:32;;;;;;;;;;;;;;;15.29;36.59;102111.84;5023191;28;19916;-47
2022/05/10 02:49:58;;;;;;;;;;;;;;;15.29;36.75;102114.50;5026718;28;19917;-48
2022/05/10 02:52:23;;;;;;;;;;;;;;;15.31;36.61;102104.66;5027555;28;19916;-46
2022/05/10 02:55:00;;;;;;;;;;;;;;;15.31;36.57;102091.41;5026261;28;19967;-47
2022/05/10 02:57:26;;;;;;;;;;;;;;;15.32;36.59;102082.50;5027615;28;20381;-46
2022/05/10 02:59:53;;;;;;;;;;;;;;;15.32;36.61;102082.50;5025269;28;19920;-46
2022/05/10 03:02:24;;;;;;;;;;;;;;;15.33;36.67;102097.47;5027148;28;19913;-46
2022/05/10 03:04:56;;;;;;;;;;;;;;;15.33;36.63;102095.66;5023906;28;19920;-47
2022/05/10 03:07:22;;;;;;;;;;;;;;;15.32;36.44;102099.25;5022155;28;19921;-47
2022/05/10 03:09:47;;;;;;;;;;;;;;;15.30;36.54;102095.00;5027801;28;19921;-46
2022/05/10 03:12:12;;;;;;;;;;;;;;;15.29;36.53;102094.13;5030066;28;19917;-48
2022/05/10 03:14:38;;;;;;;;;;;;;;;15.30;36.65;102089.69;5030329;28;20934;-49
2022/05/10 03:17:04;;;;;;;;;;;;;;;15.29;36.59;102088.81;5020442;28;20626;-48
2022/05/10 03:19:29;;;;;;;;;;;;;;;15.29;36.53;102093.28;5023163;28;19917;-45
2022/05/10 03:21:55;;;;;;;;;;;;;;;15.24;36.70;102086.44;5020656;28;19920;-47
2022/05/10 03:24:20;;;;;;;;;;;;;;;15.21;36.74;102085.75;5025115;28;19935;-45
2022/05/10 03:26:48;;;;;;;;;;;;;;;15.18;36.92;102077.97;5023607;28;19917;-48
2022/05/10 03:29:15;;;;;;;;;;;;;;;15.17;36.79;102085.06;5022506;28;20315;-46
2022/05/10 03:31:40;;;;;;;;;;;;;;;15.15;36.79;102086.94;5016801;28;19913;-49
2022/05/10 03:36:50;;;;;;;;;;;;;;;15.11;36.88;102085.41;5022862;28;19928;-46
2022/05/10 03:39:15;;;;;;;;;;;;;;;15.08;37.07;102080.28;5021498;28;19933;-47
2022/05/10 03:41:41;;;;;;;;;;;;;;;15.06;36.96;102071.53;5018852;28;20417;-45
2022/05/10 03:44:07;;;;;;;;;;;;;;;15.05;37.03;102059.25;5023320;28;19917;-45
2022/05/10 03:46:32;;;;;;;;;;;;;;;15.04;37.18;102058.38;5017324;28;19924;-45
2022/05/10 03:48:58;;;;;;;;;;;;;;;15.05;37.17;102062.75;5019993;28;19916;-48
2022/05/10 03:51:23;;;;;;;;;;;;;;;15.05;37.13;102059.25;5025344;28;19913;-45
2022/05/10 03:53:48;;;;;;;;;;;;;;;15.04;37.26;102052.25;5020966;28;20294;-47
2022/05/10 03:56:14;;;;;;;;;;;;;;;15.03;37.27;102061.97;5021252;28;19965;-45
2022/05/10 03:58:39;;;;;;;;;;;;;;;15.03;37.25;102054.03;5025197;28;19927;-50
2022/05/10 04:01:07;;;;;;;;;;;;;;;15.03;37.22;102050.53;5022793;28;20384;-46
2022/05/10 04:03:33;;;;;;;;;;;;;;;15.01;37.36;102052.41;5024545;28;20331;-46
2022/05/10 04:05:58;;;;;;;;;;;;;;;14.99;37.20;102047.16;5021474;28;20066;-47
2022/05/10 04:08:24;;;;;;;;;;;;;;;14.98;37.37;102047.28;5024878;28;20340;-45
2022/05/10 04:10:49;;;;;;;;;;;;;;;14.99;37.12;102046.34;5021437;28;20452;-46
2022/05/10 04:13:15;;;;;;;;;;;;;;;14.98;37.17;102047.28;5023535;28;19913;-45
2022/05/10 04:15:40;;;;;;;;;;;;;;;14.98;37.23;102042.81;5021650;28;21438;-46
2022/05/10 04:18:05;;;;;;;;;;;;;;;14.98;37.50;102044.63;5021879;28;19920;-47
2022/05/10 04:20:31;;;;;;;;;;;;;;;15.00;37.46;102046.22;5025107;28;20008;-46
2022/05/10 04:22:56;;;;;;;;;;;;;;;15.00;37.60;102045.41;5023129;28;20004;-45
2022/05/10 04:25:23;;;;;;;;;;;;;;;15.01;37.34;102041.81;5024856;28;20004;-47
2022/05/10 04:27:50;;;;;;;;;;;;;;;15.03;37.35;102034.63;5025736;28;19925;-46
2022/05/10 04:30:15;;;;;;;;;;;;;;;15.06;37.50;102029.13;5008489;28;19922;-45
2022/05/10 04:32:41;;;;;;;;;;;;;;;15.08;37.26;102021.94;5024095;28;19927;-48
2022/05/10 04:35:07;;;;;;;;;;;;;;;15.11;37.32;102027.09;5023751;28;19955;-46
2022/05/10 04:37:32;;;;;;;;;;;;;;;15.11;37.41;102026.25;5027045;28;19920;-46
2022/05/10 04:42:45;;;;;;;;;;;;;;;15.16;37.43;102026.81;5023408;28;19928;-47
2022/05/10 04:45:10;;;;;;;;;;;;;;;15.17;37.38;102016.16;5023733;28;20958;-48
2022/05/10 04:47:36;;;;;;;;;;;;;;;15.21;37.53;102019.47;5008868;28;19924;-46
2022/05/10 04:50:01;;;;;;;;;;;;;;;15.24;37.30;102017.47;5024732;28;19921;-49
2022/05/10 04:52:27;;;;;;;;;;;;;;;15.27;37.34;102019.13;5025101;28;19967;-45
2022/05/10 04:54:52;;;;;;;;;;;;;;;15.30;37.31;102026.03;5022778;28;20010;-46
2022/05/10 04:57:17;;;;;;;;;;;;;;;15.35;37.46;102018.69;5022150;28;19917;-45
2022/05/10 04:59:43;;;;;;;;;;;;;;;15.41;37.22;102028.91;5009200;28;20291;-48
2022/05/10 05:02:08;;;;;;;;;;;;;;;15.45;37.22;102022.50;5026516;28;19924;-44
2022/05/10 05:04:33;;;;;;;;;;;;;;;15.48;37.20;102019.69;5024290;28;19967;-47
2022/05/10 05:06:59;;;;;;;;;;;;;;;15.54;37.37;102019.31;5024474;28;19918;-47
2022/05/10 05:09:24;;;;;;;;;;;;;;;15.59;37.19;102010.22;5026145;28;19925;-47
2022/05/10 05:11:49;;;;;;;;;;;;;;;15.63;37.33;102017.06;5022998;28;19917;-46
2022/05/10 05:14:14;;;;;;;;;;;;;;;15.66;37.25;102016.88;5027702;28;19968;-45
2022/05/10 05:16:40;;;;;;;;;;;;;;;15.69;37.11;102022.88;5032152;28;19999;-49
2022/05/10 05:19:05;;;;;;;;;;;;;;;15.74;37.33;102013.75;5025646;28;19945;-44
2022/05/10 05:21:31;;;;;;;;;;;;;;;15.77;37.31;102018.88;5025416;28;20580;-46
2022/05/10 05:23:56;;;;;;;;;;;;;;;15.80;37.23;102019.59;5028602;28;20592;-48
2022/05/10 05:26:22;;;;;;;;;;;;;;;15.84;37.19;102029.03;5023243;28;20456;-49
2022/05/10 05:28:47;;;;;;;;;;;;;;;15.87;37.19;102020.09;5013708;28;19969;-46
2022/05/10 05:31:14;;;;;;;;;;;;;;;15.90;37.34;102019.06;5015915;28;19917;-50
2022/05/10 05:33:39;;;;;;;;;;;;;;;15.93;37.28;102017.06;5024482;28;19928;-47
2022/05/10 05:36:05;;;;;;;;;;;;;;;15.96;37.44;102016.00;5012760;28;20536;-48
2022/05/10 05:38:30;;;;;;;;;;;;;;;15.99;37.36;102008.75;5019816;28;19924;-46
2022/05/10 05:40:55;;;;;;;;;;;;;;;16.05;37.49;102007.50;5015529;28;20408;-48
2022/05/10 05:43:22;;;;;;;;;;;;;;;16.09;37.32;102003.72;5024873;28;19921;-47
2022/05/10 05:45:51;;;;;;;;;;;;;;;16.13;37.40;101997.25;5022911;28;19917;-50
2022/05/10 05:48:17;;;;;;;;;;;;;;;16.17;37.48;102002.38;5024920;28;19979;-49
2022/05/10 05:50:43;;;;;;;;;;;;;;;16.20;37.39;102002.22;5025588;28;20007;-47
2022/05/10 05:53:08;;;;;;;;;;;;;;;16.22;37.43;102000.31;5028959;28;20377;-49
2022/05/10 05:55:34;;;;;;;;;;;;;;;16.26;37.62;102004.50;5022741;28;19920;-47
2022/05/10 05:57:59;;;;;;;;;;;;;;;16.28;37.40;102005.22;5016699;28;19924;-46
2022/05/10 06:00:26;;;;;;;;;;;;;;;16.29;37.62;101991.00;5021824;28;20361;-46
2022/05/10 06:02:51;;;;;;;;;;;;;;;16.32;37.64;101996.13;5028560;28;19917;-47
2022/05/10 06:05:17;;;;;;;;;;;;;;;16.35;37.54;101987.97;5019948;28;20504;-46
2022/05/10 06:07:42;;;;;;;;;;;;;;;16.37;37.53;101987.88;5027391;28;20340;-47
2022/05/10 06:10:09;;;;;;;;;;;;;;;16.40;37.66;101982.38;5027237;28;19943;-47
2022/05/10 06:12:34;;;;;;;;;;;;;;;16.42;37.67;101978.66;5027739;28;19913;-47
2022/05/10 06:15:00;;;;;;;;;;;;;;;16.45;37.68;101973.16;5029057;28;19959;-48
2022/05/10 06:17:25;;;;;;;;;;;;;;;16.50;37.71;101970.19;5026926;28;20007;-47
2022/05/10 06:19:51;;;;;;;;;;;;;;;16.54;37.77;101976.19;5021260;28;19913;-47
2022/05/10 06:22:16;;;;;;;;;;;;;;;16.58;37.77;101965.28;5026602;28;20304;-48
2022/05/10 06:24:42;;;;;;;;;;;;;;;16.62;37.62;101973.88;5025554;28;19920;-47
2022/05/10 06:27:10;;;;;;;;;;;;;;;16.66;37.77;101980.72;5019329;28;19948;-47
2022/05/10 06:29:36;;;;;;;;;;;;;;;16.70;37.84;101981.38;5024601;28;19920;-47
2022/05/10 06:32:01;;;;;;;;;;;;;;;16.74;37.85;101977.56;5027129;28;19928;-47
2022/05/10 06:34:26;;;;;;;;;;;;;;;16.77;37.89;101975.56;5007901;28;19925;-48
2022/05/10 06:36:52;;;;;;;;;;;;;;;16.83;37.78;101981.44;5024557;28;19920;-47
2022/05/10 06:39:17;;;;;;;;;;;;;;;16.85;37.78;101969.75;5027698;28;20014;-49
2022/05/10 06:41:42;;;;;;;;;;;;;;;16.89;37.87;101975.72;5030603;28;20334;-47
2022/05/10 06:44:08;;;;;;;;;;;;;;;16.94;37.86;101978.94;5027566;28;20000;-47
2022/05/10 06:46:34;;;;;;;;;;;;;;;16.98;37.88;101969.84;5036008;28;19944;-47
2022/05/10 06:49:01;;;;;;;;;;;;;;;17.02;37.87;101966.00;5029028;28;19921;-48
2022/05/10 06:51:27;;;;;;;;;;;;;;;17.07;37.79;101968.38;5030359;28;20443;-48
2022/05/10 06:53:53;;;;;;;;;;;;;;;17.11;37.80;101969.03;5024964;28;19917;-47
2022/05/10 06:56:19;;;;;;;;;;;;;;;17.15;37.87;101965.22;5027071;28;19956;-47
2022/05/10 06:58:44;;;;;;;;;;;;;;;17.18;37.82;101959.69;5027670;28;19975;-49
2022/05/10 07:01:13;;;;;;;;;;;;;;;17.23;37.99;101949.59;5027031;28;19913;-47
2022/05/10 07:03:43;;;;;;;;;;;;;;;17.26;38.05;101943.22;5026974;28;19922;-47
2022/05/10 07:06:10;;;;;;;;;;;;;;;17.31;38.07;101947.28;5025126;28;20007;-49
2022/05/10 07:08:36;;;;;;;;;;;;;;;17.37;38.12;101948.69;5029821;28;19920;-47
2022/05/10 07:11:01;;;;;;;;;;;;;;;17.41;38.22;101950.16;5028501;28;19913;-47
2022/05/10 07:13:29;;;;;;;;;;;;;;;17.45;38.27;101943.69;5026097;28;19952;-48
2022/05/10 07:15:54;;;;;;;;;;;;;;;17.51;38.30;101939.75;5022681;28;19917;-47
2022/05/10 07:18:19;;;;;;;;;;;;;;;17.57;38.28;101936.69;5024700;28;19910;-45
2022/05/10 07:20:45;;;;;;;;;;;;;;;17.62;38.34;101934.53;5024945;28;19913;-45
2022/05/10 07:23:11;;;;;;;;;;;;;;;17.67;38.39;101932.41;5029987;28;20000;-46
2022/05/10 07:25:38;;;;;;;;;;;;;;;17.74;38.49;101930.16;5023568;28;19957;-45
2022/05/10 07:28:05;;;;;;;;;;;;;;;17.78;38.44;101925.47;5029850;28;19964;-45
2022/05/10 07:30:31;;;;;;;;;;;;;;;17.83;38.47;101931.34;5028560;28;19917;-45
2022/05/10 07:32:56;;;;;;;;;;;;;;;17.88;38.58;101921.25;5023282;28;20351;-46
2022/05/10 07:38:09;;;;;;;;;;;;;;;18.00;38.58;101916.03;5001092;28;19939;-49
2022/05/10 07:40:34;;;;;;;;;;;;;;;18.06;38.58;101924.44;5028914;28;19991;-45
2022/05/10 07:43:00;;;;;;;;;;;;;;;18.13;38.55;101930.19;5029464;28;20137;-48
2022/05/10 07:45:25;;;;;;;;;;;;;;;18.17;38.57;101929.00;5028182;28;20058;-46
2022/05/10 07:47:51;;;;;;;;;;;;;;;18.23;38.56;101920.56;5024872;28;19976;-47
2022/05/10 07:50:17;;;;;;;;;;;;;;;18.30;38.66;101923.66;5028748;28;20373;-46
2022/05/10 07:52:42;;;;;;;;;;;;;;;18.36;38.76;101917.03;5023432;28;19928;-45
2022/05/10 07:55:08;;;;;;;;;;;;;;;18.41;38.72;101917.53;5027305;28;19913;-46
2022/05/10 07:57:34;;;;;;;;;;;;;;;18.46;38.62;101910.06;5025911;28;19913;-45
2022/05/10 07:59:59;;;;;;;;;;;;;;;18.51;38.60;101909.72;5029450;28;19936;-44
2022/05/10 08:02:24;;;;;;;;;;;;;;;18.55;38.65;101909.38;5028412;28;19913;-46
2022/05/10 08:04:50;;;;;;;;;;;;;;;18.58;38.71;101908.31;5021574;28;19917;-46
2022/05/10 08:07:15;;;;;;;;;;;;;;;18.64;38.66;101905.19;5022895;28;19971;-45
2022/05/10 08:09:41;;;;;;;;;;;;;;;18.69;38.52;101904.84;5022760;28;19997;-46
2022/05/10 08:12:06;;;;;;;;;;;;;;;18.73;38.72;101899.19;5021531;28;20402;-47
2022/05/10 08:14:32;;;;;;;;;;;;;;;18.79;38.55;101892.56;5026426;28;19956;-45
2022/05/10 08:16:57;;;;;;;;;;;;;;;18.88;38.82;101899.00;5022585;28;19931;-45
2022/05/10 08:19:22;;;;;;;;;;;;;;;18.95;38.72;101883.44;5025394;28;19979;-45
2022/05/10 08:21:47;;;;;;;;;;;;;;;19.01;38.63;101885.63;5026915;28;20369;-46
2022/05/10 08:24:13;;;;;;;;;;;;;;;19.07;38.80;101877.16;5017720;28;19992;-47
2022/05/10 08:26:38;;;;;;;;;;;;;;;19.12;38.87;101877.66;5021684;28;19980;-46
2022/05/10 08:29:03;;;;;;;;;;;;;;;19.19;38.82;101881.56;5029765;28;20415;-46
2022/05/10 08:31:29;;;;;;;;;;;;;;;19.27;38.75;101877.47;5024092;28;20441;-45
2022/05/10 08:33:54;;;;;;;;;;;;;;;19.34;38.74;101876.00;5020275;28;20325;-45
2022/05/10 08:36:19;;;;;;;;;;;;;;;19.38;38.80;101880.16;5025329;28;19913;-46
2022/05/10 08:38:45;;;;;;;;;;;;;;;19.45;38.81;101876.00;5025291;28;19917;-45
2022/05/10 08:41:20;;;;;;;;;;;;;;;19.51;38.88;101869.38;5017587;28;19913;-45
2022/05/10 08:43:56;;;;;;;;;;;;;;;19.58;38.56;101869.75;5023594;28;19914;-45
2022/05/10 08:46:26;;;;;;;;;;;;;;;19.61;38.80;101864.13;5026816;28;20338;-45
2022/05/10 08:49:00;;;;;;;;;;;;;;;19.65;38.75;101855.78;5033310;28;20308;-46
2022/05/10 08:51:26;;;;;;;;;;;;;;;19.69;38.85;101859.06;5034709;28;19909;-45
2022/05/10 08:53:51;;;;;;;;;;;;;;;19.73;38.80;101851.66;5032284;28;19963;-45
2022/05/10 08:56:26;;;;;;;;;;;;;;;19.78;38.60;101844.97;5024896;28;20612;-47
2022/05/10 08:58:51;;;;;;;;;;;;;;;19.82;38.74;101839.38;5026024;28;19991;-45
2022/05/10 09:01:20;;;;;;;;;;;;;;;19.85;38.40;101841.81;5021567;28;20360;-45
2022/05/10 09:04:00;;;;;;;;;;;;;;;19.92;38.30;101843.03;5030149;28;20010;-45
2022/05/10 09:06:55;;;;;;;;;;;;;;;19.99;38.19;101833.59;5025822;28;19923;-46
2022/05/10 09:09:32;;;;;;;;;;;;;;;20.08;37.88;101824.81;5008699;28;20408;-45
2022/05/10 09:12:09;;;;;;;;;;;;;;;20.14;37.95;101825.28;5031752;28;20372;-48
2022/05/10 09:14:40;;;;;;;;;;;;;;;20.21;37.75;101819.31;5032943;28;19998;-46
2022/05/10 09:17:05;;;;;;;;;;;;;;;20.30;37.72;101811.50;5023665;28;20006;-46
2022/05/10 09:19:38;;;;;;;;;;;;;;;20.38;37.21;101809.91;5025673;28;19948;-47
2022/05/10 09:22:12;;;;;;;;;;;;;;;20.46;37.12;101811.09;5031947;28;19916;-46
2022/05/10 09:24:46;;;;;;;;;;;;;;;20.52;36.92;101805.22;5026841;28;19909;-46
2022/05/10 09:27:13;;;;;;;;;;;;;;;20.55;36.58;101810.31;5032660;28;19908;-46
2022/05/10 09:29:49;;;;;;;;;;;;;;;20.58;36.36;101802.06;5033700;28;20011;-45
2022/05/10 09:35:07;;;;;;;;;;;;;;;20.65;36.15;101800.53;5029243;28;19928;-47
2022/05/10 09:37:37;;;;;;;;;;;;;;;20.68;35.84;101800.28;5030704;28;19932;-46
2022/05/10 09:40:10;;;;;;;;;;;;;;;20.73;36.06;101799.06;5024379;28;20452;-49
2022/05/10 09:42:43;;;;;;;;;;;;;;;20.77;35.90;101804.06;5018347;28;19917;-49
2022/05/10 09:45:20;;;;;;;;;;;;;;;20.79;35.62;101793.25;5028734;28;19913;-47
2022/05/10 09:47:54;;;;;;;;;;;;;;;20.83;35.39;101791.97;5024189;28;19975;-46
2022/05/10 09:50:21;;;;;;;;;;;;;;;20.86;35.10;101791.72;5026424;28;19920;-46
2022/05/10 09:52:47;;;;;;;;;;;;;;;20.88;34.90;101784.41;5023818;28;20008;-46
2022/05/10 09:55:24;;;;;;;;;;;;;;;20.92;34.46;101780.50;5024914;28;19921;-47
2022/05/10 09:57:49;;;;;;;;;;;;;;;20.95;34.57;101782.91;5031658;28;20381;-46
2022/05/10 10:00:15;;;;;;;;;;;;;;;20.98;34.60;101771.09;5030424;28;19928;-48
2022/05/10 10:02:42;;;;;;;;;;;;;;;21.01;34.61;101776.19;5029620;28;19913;-45
2022/05/10 10:05:19;;;;;;;;;;;;;;;21.06;34.47;101775.78;5021741;28;19936;-46
2022/05/10 10:07:53;;;;;;;;;;;;;;;21.09;34.40;101772.88;5025775;28;19917;-46
2022/05/10 10:10:24;;;;;;;;;;;;;;;21.09;34.30;101772.88;5028488;28;19921;-45
2022/05/10 10:12:50;;;;;;;;;;;;;;;21.11;34.23;101774.41;5029334;28;19959;-46
2022/05/10 10:15:34;;;;;;;;;;;;;;;21.15;34.14;101764.28;5026251;28;19925;-46
2022/05/10 10:18:01;;;;;;;;;;;;;;;21.18;34.11;101750.66;5021523;28;19909;-45
2022/05/10 10:20:34;;;;;;;;;;;;;;;21.21;33.93;101763.75;5027647;28;19909;-47
2022/05/10 10:23:01;;;;;;;;;;;;;;;21.25;33.63;101759.81;5033073;28;19913;-46
2022/05/10 10:25:28;;;;;;;;;;;;;;;21.31;33.98;101753.94;5029183;28;19917;-47
2022/05/10 10:27:56;;;;;;;;;;;;;;;21.35;33.68;101749.16;5029529;28;19917;-45
2022/05/10 10:30:24;;;;;;;;;;;;;;;21.39;33.70;101747.06;5028119;28;19913;-47
2022/05/10 10:32:56;;;;;;;;;;;;;;;21.43;33.66;101751.16;5028142;28;19923;-46
2022/05/10 10:35:30;;;;;;;;;;;;;;;21.47;33.40;101741.88;5030965;28;20427;-46
2022/05/10 10:37:59;;;;;;;;;;;;;;;21.52;32.84;101734.28;5023268;28;19976;-46
2022/05/10 10:40:24;;;;;;;;;;;;;;;21.55;32.81;101728.66;5027000;28;19912;-47
2022/05/10 10:43:13;;;;;;;;;;;;;;;21.61;32.65;101725.47;5028754;28;19913;-46
2022/05/10 10:45:38;;;;;;;;;;;;;;;21.75;32.74;101734.06;5019770;28;19920;-46
2022/05/10 10:48:22;;;;;;;;;;;;;;;21.83;32.49;101725.34;5024033;28;19917;-46
2022/05/10 10:50:47;;;;;;;;;;;;;;;21.90;32.21;101727.34;5024800;28;19913;-46
2022/05/10 10:53:13;;;;;;;;;;;;;;;22.00;32.27;101715.81;5021967;28;20418;-46
2022/05/10 10:55:57;;;;;;;;;;;;;;;22.06;32.20;101707.19;5020418;28;19967;-47
2022/05/10 10:58:23;;;;;;;;;;;;;;;22.14;32.32;101712.69;5025112;28;19921;-47
2022/05/10 11:00:54;;;;;;;;;;;;;;;22.20;32.25;101706.75;5031594;28;19913;-48
2022/05/10 11:03:33;;;;;;;;;;;;;;;22.28;32.09;101702.53;5024493;28;19917;-47
2022/05/10 11:06:04;;;;;;;;;;;;;;;22.36;32.14;101697.28;5023151;28;19920;-47
2022/05/10 11:08:39;;;;;;;;;;;;;;;22.41;31.82;101692.34;5026878;28;19924;-46
2022/05/10 11:11:08;;;;;;;;;;;;;;;22.46;31.70;101695.47;5028826;28;19909;-45
2022/05/10 11:13:33;;;;;;;;;;;;;;;22.53;31.72;101696.59;5025091;28;19922;-49
2022/05/10 11:16:17;;;;;;;;;;;;;;;22.60;31.73;101690.66;5027734;28;19909;-47
2022/05/10 11:18:57;;;;;;;;;;;;;;;22.65;31.69;101685.69;5023505;28;19921;-51
2022/05/10 11:21:38;;;;;;;;;;;;;;;22.69;31.62;101695.97;5025155;28;19924;-46
2022/05/10 11:24:06;;;;;;;;;;;;;;;22.73;31.37;101680.47;5029615;28;19917;-47
2022/05/10 11:26:35;;;;;;;;;;;;;;;22.79;31.33;101673.66;5022787;28;19921;-46
2022/05/10 11:29:27;;;;;;;;;;;;;;;22.82;31.45;101679.56;5025415;28;19928;-47
2022/05/10 11:31:55;;;;;;;;;;;;;;;22.88;31.31;101667.41;5018263;28;19913;-48
2022/05/10 11:34:39;;;;;;;;;;;;;;;22.93;31.65;101661.59;5020240;28;19958;-48
2022/05/10 11:37:08;;;;;;;;;;;;;;;22.98;31.46;101660.16;5023933;28;19913;-48
2022/05/10 11:39:53;;;;;;;;;;;;;;;23.04;31.60;101658.72;5020042;28;20745;-47
2022/05/10 11:42:32;;;;;;;;;;;;;;;23.11;31.72;101649.06;5026329;28;20460;-47
2022/05/10 11:45:01;;;;;;;;;;;;;;;23.20;31.29;101654.56;5021926;28;19920;-47
2022/05/10 11:47:29;;;;;;;;;;;;;;;23.27;31.39;101642.22;5025174;28;20023;-47
2022/05/10 11:49:54;;;;;;;;;;;;;;;23.32;31.46;101633.72;5022111;28;19927;-49
2022/05/10 11:52:20;;;;;;;;;;;;;;;23.35;31.48;101634.28;5023313;28;20000;-47
2022/05/10 11:55:11;;;;;;;;;;;;;;;23.39;31.39;101627.59;5027803;28;19988;-47
2022/05/10 11:57:37;;;;;;;;;;;;;;;23.47;31.60;101628.69;5008610;28;19913;-46
2022/05/10 12:00:21;;;;;;;;;;;;;;;23.53;31.29;101614.63;5023515;28;19971;-46
2022/05/10 12:02:47;;;;;;;;;;;;;;;23.59;31.65;101612.22;5028860;28;19913;-46
2022/05/10 12:05:15;;;;;;;;;;;;;;;23.68;31.53;101614.94;5025699;28;19917;-48
2022/05/10 12:07:44;;;;;;;;;;;;;;;23.78;31.28;101609.50;5010490;28;20365;-47
2022/05/10 12:10:21;;;;;;;;;;;;;;;23.87;31.33;101608.56;5027273;28;19913;-48
2022/05/10 12:12:47;;;;;;;;;;;;;;;23.95;31.32;101600.56;5028250;28;19935;-48
2022/05/10 12:21:20;;;;;;;;;;;;;;;24.22;31.19;101596.09;5022925;28;20352;-49
2022/05/10 12:24:01;;;;;;;;;;;;;;;24.26;30.91;101589.41;5021724;28;19913;-47
2022/05/10 12:26:40;;;;;;;;;;;;;;;24.30;31.03;101584.53;5020980;28;19913;-47
2022/05/10 12:29:06;;;;;;;;;;;;;;;24.33;30.97;101592.28;5018375;28;19975;-47
2022/05/10 12:31:32;;;;;;;;;;;;;;;24.36;30.87;101586.56;5019164;28;20464;-46
2022/05/10 12:34:01;;;;;;;;;;;;;;;24.38;30.98;101578.38;5021038;28;20012;-48
2022/05/10 12:36:38;;;;;;;;;;;;;;;24.39;30.73;101575.50;5027027;28;19923;-47
2022/05/10 12:39:22;;;;;;;;;;;;;;;24.44;30.85;101566.94;5021560;28;19917;-46
2022/05/10 12:41:49;;;;;;;;;;;;;;;24.48;30.65;101562.94;5016925;28;20006;-47
2022/05/10 12:44:33;;;;;;;;;;;;;;;24.51;31.03;101558.06;5015504;28;19921;-47
2022/05/10 12:47:08;;;;;;;;;;;;;;;24.57;30.62;101553.06;5025244;28;19999;-47
2022/05/10 12:49:49;;;;;;;;;;;;;;;24.61;30.86;101557.13;5019227;28;19921;-47
2022/05/10 12:52:20;;;;;;;;;;;;;;;24.67;30.61;101556.47;5022057;28;19913;-48
2022/05/10 12:54:47;;;;;;;;;;;;;;;24.70;30.57;101540.03;5015393;28;19917;-47
2022/05/10 12:57:24;;;;;;;;;;;;;;;24.77;30.61;101543.78;5020844;28;19913;-47
2022/05/10 13:00:12;;;;;;;;;;;;;;;24.90;30.48;101543.28;5024803;28;19983;-48
2022/05/10 13:02:43;;;;;;;;;;;;;;;24.99;30.19;101536.06;5025085;28;20288;-47